Time;durP1;ratioP1;P1;durP2;ratioP2;P2;SDS_P1;SDS_P2;PMS_P1;PMS_P2;Temp;Humidity;BMP_temperature;BMP_pressure;BME280_temperature;BME280_humidity;BME280_pressure;Samples;Min_cycle;Max_cycle;Signal;HPM_P1;HPM_P2
2023/07/10 00:00:23;;;;;;;15.15;9.85;;;;;;;-148.88;100.00;-17125.47;5015388;28;20087;-86
2023/07/10 00:02:49;;;;;;;17.98;10.43;;;;;;;-148.88;100.00;-17125.47;5015155;28;20492;-87
2023/07/10 00:05:17;;;;;;;18.00;10.63;;;;;;;-148.88;100.00;-17125.47;5016848;28;20029;-87
2023/07/10 00:07:43;;;;;;;17.50;10.20;;;;;;;-148.88;100.00;-17125.47;5015564;28;20357;-87
2023/07/10 00:10:13;;;;;;;20.75;10.95;;;;;;;-148.88;100.00;-17125.47;5015118;28;20035;-88
2023/07/10 00:12:41;;;;;;;20.95;12.48;;;;;;;-148.88;100.00;-17125.47;5015449;28;20029;-88
2023/07/10 00:15:26;;;;;;;22.67;11.45;;;;;;;-148.88;100.00;-17125.47;5015066;28;20418;-87
2023/07/10 00:17:52;;;;;;;20.10;10.70;;;;;;;-148.88;100.00;-17125.47;5015082;28;20063;-88
2023/07/10 00:20:22;;;;;;;15.13;10.60;;;;;;;-148.88;100.00;-17125.47;5015108;28;20056;-88
2023/07/10 00:22:48;;;;;;;18.30;11.32;;;;;;;-148.88;100.00;-17125.47;5015137;28;20025;-88
2023/07/10 00:25:17;;;;;;;19.08;11.15;;;;;;;-148.88;100.00;-17125.47;5015681;28;20440;-88
2023/07/10 00:27:44;;;;;;;18.02;11.32;;;;;;;-148.88;100.00;-17125.47;5014933;28;20108;-87
2023/07/10 00:30:18;;;;;;;19.77;10.95;;;;;;;-148.88;100.00;-17125.47;5014937;28;20484;-88
2023/07/10 00:32:44;;;;;;;21.05;11.63;;;;;;;-148.88;100.00;-17125.47;5014823;28;20053;-89
2023/07/10 00:35:16;;;;;;;20.95;12.30;;;;;;;-148.88;100.00;-17125.47;5015088;28;20108;-87
2023/07/10 00:37:45;;;;;;;22.30;11.90;;;;;;;-148.88;100.00;-17125.47;5015244;28;20037;-89
2023/07/10 00:40:22;;;;;;;17.55;11.57;;;;;;;-148.88;100.00;-17125.47;5014674;28;20029;-89
2023/07/10 00:42:57;;;;;;;19.92;11.90;;;;;;;-148.88;100.00;-17125.47;5014843;28;20052;-88
2023/07/10 00:45:22;;;;;;;21.20;11.43;;;;;;;-148.88;100.00;-17125.47;5014904;28;20040;-89
2023/07/10 00:48:00;;;;;;;17.30;10.52;;;;;;;-148.88;100.00;-17125.47;5023195;28;20013;-91
2023/07/10 00:50:35;;;;;;;16.77;10.38;;;;;;;-148.88;100.00;-17125.47;5015471;28;20021;-87
2023/07/10 00:53:04;;;;;;;23.15;10.70;;;;;;;-148.88;100.00;-17125.47;5017742;28;20064;-87
2023/07/10 00:55:37;;;;;;;18.25;10.10;;;;;;;-148.88;100.00;-17125.47;5014821;28;20056;-87
2023/07/10 00:58:15;;;;;;;17.73;10.30;;;;;;;-148.88;100.00;-17125.47;5014580;28;20026;-87
2023/07/10 01:01:13;;;;;;;16.42;9.75;;;;;;;-148.88;100.00;-17125.47;5014697;28;20029;-87
2023/07/10 01:03:40;;;;;;;17.77;9.30;;;;;;;-148.88;100.00;-17125.47;5015047;28;20104;-88
2023/07/10 01:06:21;;;;;;;15.93;9.35;;;;;;;-148.88;100.00;-17125.47;5017964;28;20029;-87
2023/07/10 01:08:59;;;;;;;17.50;9.43;;;;;;;-148.88;100.00;-17125.47;5018242;28;20029;-87
2023/07/10 01:11:26;;;;;;;14.85;9.80;;;;;;;-148.88;100.00;-17125.47;5018965;28;20065;-87
2023/07/10 01:13:53;;;;;;;18.08;9.07;;;;;;;-148.88;100.00;-17125.47;5018155;28;20100;-87
2023/07/10 01:16:20;;;;;;;15.18;8.48;;;;;;;-148.88;100.00;-17125.47;5018107;28;20025;-87
2023/07/10 01:18:48;;;;;;;13.70;8.98;;;;;;;-148.88;100.00;-17125.47;5018036;28;20112;-88
2023/07/10 01:21:27;;;;;;;12.77;8.32;;;;;;;-148.88;100.00;-17125.47;5018002;28;20064;-87
2023/07/10 01:23:53;;;;;;;16.67;10.05;;;;;;;-148.88;100.00;-17125.47;5018082;28;20037;-87
2023/07/10 01:26:19;;;;;;;15.27;9.32;;;;;;;-148.88;100.00;-17125.47;5018711;28;20021;-89
2023/07/10 01:28:45;;;;;;;15.75;10.25;;;;;;;-148.88;100.00;-17125.47;5017865;28;20029;-87
2023/07/10 01:31:14;;;;;;;16.05;10.63;;;;;;;-148.88;100.00;-17125.47;5017987;28;20021;-87
2023/07/10 01:33:47;;;;;;;16.17;11.27;;;;;;;-148.88;100.00;-17125.47;5018047;28;20022;-88
2023/07/10 01:36:17;;;;;;;19.98;15.32;;;;;;;-148.88;100.00;-17125.47;5017617;28;20017;-88
2023/07/10 01:38:48;;;;;;;27.92;20.83;;;;;;;-148.88;100.00;-17125.47;5017457;28;20120;-88
2023/07/10 01:41:31;;;;;;;35.47;25.85;;;;;;;-148.88;100.00;-17125.47;5017897;28;20071;-89
2023/07/10 01:43:56;;;;;;;36.63;27.42;;;;;;;-148.88;100.00;-17125.47;5019829;28;20021;-89
2023/07/10 01:46:26;;;;;;;37.03;28.08;;;;;;;-148.88;100.00;-17125.47;5017583;28;20503;-87
2023/07/10 01:48:55;;;;;;;43.03;29.55;;;;;;;-148.88;100.00;-17125.47;5017839;28;20448;-87
2023/07/10 01:51:22;;;;;;;40.13;29.77;;;;;;;-148.88;100.00;-17125.47;5017544;28;20029;-87
2023/07/10 01:53:48;;;;;;;46.72;30.02;;;;;;;-148.88;100.00;-17125.47;5017568;28;20352;-87
2023/07/10 01:56:15;;;;;;;43.90;29.15;;;;;;;-148.88;100.00;-17125.47;5017532;28;20108;-88
2023/07/10 01:58:41;;;;;;;44.50;32.75;;;;;;;-148.88;100.00;-17125.47;5017447;28;20148;-87
2023/07/10 02:01:06;;;;;;;42.47;30.05;;;;;;;-148.88;100.00;-17125.47;5019073;28;20033;-86
2023/07/10 02:03:32;;;;;;;46.05;31.02;;;;;;;-148.88;100.00;-17125.47;5018019;28;20043;-87
2023/07/10 02:05:57;;;;;;;43.55;29.90;;;;;;;-148.88;100.00;-17125.47;5017394;28;20031;-88
2023/07/10 02:08:22;;;;;;;41.05;30.02;;;;;;;-148.88;100.00;-17125.47;5017266;28;20120;-87
2023/07/10 02:10:48;;;;;;;39.55;29.58;;;;;;;-148.88;100.00;-17125.47;5017130;28;20495;-88
2023/07/10 02:13:13;;;;;;;39.20;28.10;;;;;;;-148.88;100.00;-17125.47;5016825;28;20025;-87
2023/07/10 02:15:40;;;;;;;39.67;29.95;;;;;;;-148.88;100.00;-17125.47;5016474;28;20025;-88
2023/07/10 02:18:05;;;;;;;40.13;28.40;;;;;;;-148.88;100.00;-17125.47;5017032;28;20392;-87
2023/07/10 02:20:31;;;;;;;35.60;26.38;;;;;;;-148.88;100.00;-17125.47;5016837;28;20025;-88
2023/07/10 02:22:56;;;;;;;35.95;25.80;;;;;;;-148.88;100.00;-17125.47;5016651;28;20048;-87
2023/07/10 02:25:21;;;;;;;37.03;25.02;;;;;;;-148.88;100.00;-17125.47;5016786;28;20025;-87
2023/07/10 02:27:47;;;;;;;33.47;25.05;;;;;;;-148.88;100.00;-17125.47;5016751;28;20029;-88
2023/07/10 02:30:12;;;;;;;33.95;25.15;;;;;;;-148.88;100.00;-17125.47;5016755;28;20025;-88
2023/07/10 02:32:38;;;;;;;33.70;25.40;;;;;;;-148.88;100.00;-17125.47;5016919;28;20029;-88
2023/07/10 02:35:03;;;;;;;36.53;25.42;;;;;;;-148.88;100.00;-17125.47;5018303;28;20064;-88
2023/07/10 02:37:29;;;;;;;29.77;23.65;;;;;;;-148.88;100.00;-17125.47;5017422;28;20018;-88
2023/07/10 02:39:54;;;;;;;35.13;24.95;;;;;;;-148.88;100.00;-17125.47;5016427;28;20025;-89
2023/07/10 02:42:20;;;;;;;33.20;25.10;;;;;;;-148.88;100.00;-17125.47;5016458;28;20025;-87
2023/07/10 02:44:45;;;;;;;32.90;25.02;;;;;;;-148.88;100.00;-17125.47;5016590;28;20065;-89
2023/07/10 02:47:11;;;;;;;33.42;26.42;;;;;;;-148.88;100.00;-17125.47;5016849;28;20029;-88
2023/07/10 02:49:36;;;;;;;39.28;27.95;;;;;;;-148.88;100.00;-17125.47;5016327;28;20480;-88
2023/07/10 02:52:04;;;;;;;43.35;28.38;;;;;;;-148.88;100.00;-17125.47;5016268;28;20040;-88
2023/07/10 02:54:30;;;;;;;42.55;28.40;;;;;;;-148.88;100.00;-17125.47;5016122;28;20017;-89
2023/07/10 02:56:55;;;;;;;38.85;28.38;;;;;;;-148.88;100.00;-17125.47;5016354;28;20048;-88
2023/07/10 02:59:27;;;;;;;43.75;28.98;;;;;;;-148.88;100.00;-17125.47;5016161;28;20078;-87
2023/07/10 03:01:54;;;;;;;37.28;27.58;;;;;;;-148.88;100.00;-17125.47;5016779;28;20151;-87
2023/07/10 03:04:19;;;;;;;36.45;26.48;;;;;;;-148.88;100.00;-17125.47;5016274;28;20334;-90
2023/07/10 03:06:48;;;;;;;36.22;26.90;;;;;;;-148.88;100.00;-17125.47;5016360;28;20071;-87
2023/07/10 03:09:13;;;;;;;43.30;26.95;;;;;;;-148.88;100.00;-17125.47;5016362;28;20025;-87
2023/07/10 03:11:39;;;;;;;38.35;27.13;;;;;;;-148.88;100.00;-17125.47;5016204;28;20032;-88
2023/07/10 03:14:04;;;;;;;36.13;27.90;;;;;;;-148.88;100.00;-17125.47;5016032;28;20137;-88
2023/07/10 03:16:30;;;;;;;41.00;27.60;;;;;;;-148.88;100.00;-17125.47;5015704;28;20116;-89
2023/07/10 03:18:55;;;;;;;39.25;28.63;;;;;;;-148.88;100.00;-17125.47;5015666;28;20026;-88
2023/07/10 03:21:21;;;;;;;35.97;27.63;;;;;;;-148.88;100.00;-17125.47;5016000;28;20622;-87
2023/07/10 03:23:50;;;;;;;42.80;28.95;;;;;;;-148.88;100.00;-17125.47;5015809;28;20178;-88
2023/07/10 03:26:15;;;;;;;42.35;28.77;;;;;;;-148.88;100.00;-17125.47;5015734;28;20033;-88
2023/07/10 03:28:41;;;;;;;45.20;29.02;;;;;;;-148.88;100.00;-17125.47;5014765;28;20018;-91
2023/07/10 03:31:06;;;;;;;49.10;30.27;;;;;;;-148.88;100.00;-17125.47;5015983;28;20030;-89
2023/07/10 03:33:32;;;;;;;48.60;31.75;;;;;;;-148.88;100.00;-17125.47;5015799;28;20029;-89
2023/07/10 03:36:05;;;;;;;49.70;31.70;;;;;;;-148.88;100.00;-17125.47;5015583;28;20028;-90
2023/07/10 03:38:31;;;;;;;49.35;33.78;;;;;;;-148.88;100.00;-17125.47;5015295;28;20117;-89
2023/07/10 03:40:57;;;;;;;50.45;33.20;;;;;;;-148.88;100.00;-17125.47;5015333;28;20522;-88
2023/07/10 03:43:24;;;;;;;48.30;33.90;;;;;;;-148.88;100.00;-17125.47;5015344;28;20060;-90
2023/07/10 03:45:50;;;;;;;52.28;33.03;;;;;;;-148.88;100.00;-17125.47;5015347;28;20025;-88
2023/07/10 03:48:16;;;;;;;52.90;33.17;;;;;;;-148.88;100.00;-17125.47;5015104;28;20029;-89
2023/07/10 03:50:41;;;;;;;55.00;35.65;;;;;;;-148.88;100.00;-17125.47;5015450;28;20025;-88
2023/07/10 03:53:07;;;;;;;51.40;35.08;;;;;;;-148.88;100.00;-17125.47;5015670;28;20029;-87
2023/07/10 03:55:33;;;;;;;57.22;34.95;;;;;;;-148.88;100.00;-17125.47;5015674;28;20357;-85
2023/07/10 03:57:58;;;;;;;56.67;35.58;;;;;;;-148.88;100.00;-17125.47;5033857;28;20121;-85
2023/07/10 04:00:23;;;;;;;50.45;31.73;;;;;;;-148.88;100.00;-17125.47;5015993;28;20055;-87
2023/07/10 04:02:49;;;;;;;51.08;33.70;;;;;;;-148.88;100.00;-17125.47;5016006;28;20025;-85
2023/07/10 04:05:14;;;;;;;51.90;32.40;;;;;;;-148.88;100.00;-17125.47;5015809;28;20396;-85
2023/07/10 04:07:39;;;;;;;53.88;33.38;;;;;;;-148.88;100.00;-17125.47;5015811;28;20083;-84
2023/07/10 04:10:05;;;;;;;52.05;33.13;;;;;;;-148.88;100.00;-17125.47;5015425;28;20044;-87
2023/07/10 04:12:42;;;;;;;45.08;30.77;;;;;;;-148.88;100.00;-17125.47;5018942;28;20022;-89
2023/07/10 04:15:08;;;;;;;44.00;29.80;;;;;;;-148.88;100.00;-17125.47;5016394;28;20025;-90
2023/07/10 04:17:33;;;;;;;46.05;31.45;;;;;;;-148.88;100.00;-17125.47;5033313;28;20403;-87
2023/07/10 04:19:59;;;;;;;46.03;30.15;;;;;;;-148.88;100.00;-17125.47;5015933;28;20017;-86
2023/07/10 04:22:24;;;;;;;44.30;31.27;;;;;;;-148.88;100.00;-17125.47;5016887;28;20338;-86
2023/07/10 04:24:49;;;;;;;45.88;31.25;;;;;;;-148.88;100.00;-17125.47;5016855;28;20052;-85
2023/07/10 04:27:15;;;;;;;39.90;27.38;;;;;;;-148.88;100.00;-17125.47;5016804;28;20059;-87
2023/07/10 04:29:40;;;;;;;43.95;29.58;;;;;;;-148.88;100.00;-17125.47;5016667;28;20471;-86
2023/07/10 04:32:08;;;;;;;41.40;29.13;;;;;;;-148.88;100.00;-17125.47;5015608;28;20026;-86
2023/07/10 04:34:33;;;;;;;45.97;30.48;;;;;;;-148.88;100.00;-17125.47;5016115;28;20056;-84
2023/07/10 04:36:59;;;;;;;42.90;29.42;;;;;;;-148.88;100.00;-17125.47;5016102;28;20032;-85
2023/07/10 04:39:24;;;;;;;41.88;29.02;;;;;;;-148.88;100.00;-17125.47;5017148;28;20028;-86
2023/07/10 04:41:49;;;;;;;46.75;29.25;;;;;;;-148.88;100.00;-17125.47;5019341;28;20030;-85
2023/07/10 04:44:15;;;;;;;50.67;30.38;;;;;;;-148.88;100.00;-17125.47;5019423;28;20025;-86
2023/07/10 04:46:41;;;;;;;42.92;28.92;;;;;;;-148.88;100.00;-17125.47;5019353;28;20021;-85
2023/07/10 04:49:06;;;;;;;45.88;30.92;;;;;;;-148.88;100.00;-17125.47;5036968;28;20024;-85
2023/07/10 04:51:32;;;;;;;47.13;30.63;;;;;;;-148.88;100.00;-17125.47;5037072;28;20029;-85
2023/07/10 04:53:57;;;;;;;45.58;30.63;;;;;;;-148.88;100.00;-17125.47;5019003;28;20137;-85
2023/07/10 04:56:22;;;;;;;45.63;30.38;;;;;;;-148.88;100.00;-17125.47;5019213;28;20377;-85
2023/07/10 04:58:52;;;;;;;47.65;30.90;;;;;;;-148.88;100.00;-17125.47;5036692;28;20064;-85
2023/07/10 05:01:20;;;;;;;53.10;32.00;;;;;;;-148.88;100.00;-17125.47;5019036;28;20112;-86
2023/07/10 05:03:46;;;;;;;52.08;31.83;;;;;;;-148.88;100.00;-17125.47;5036963;28;20018;-86
2023/07/10 05:06:11;;;;;;;54.60;32.70;;;;;;;-148.88;100.00;-17125.47;5036846;28;20022;-86
2023/07/10 05:08:36;;;;;;;55.28;33.53;;;;;;;-148.88;100.00;-17125.47;5036256;28;20100;-87
2023/07/10 05:11:02;;;;;;;63.08;35.17;;;;;;;-148.88;100.00;-17125.47;5036959;28;20025;-87
2023/07/10 05:13:30;;;;;;;61.40;37.25;;;;;;;-148.88;100.00;-17125.47;5019252;28;20021;-87
2023/07/10 05:15:57;;;;;;;60.03;36.38;;;;;;;-148.88;100.00;-17125.47;5025101;28;20018;-86
2023/07/10 05:18:25;;;;;;;58.47;35.25;;;;;;;-148.88;100.00;-17125.47;5037826;28;20543;-85
2023/07/10 05:20:50;;;;;;;54.50;35.28;;;;;;;-148.88;100.00;-17125.47;5018715;28;20033;-86
2023/07/10 05:23:18;;;;;;;55.85;35.63;;;;;;;-148.88;100.00;-17125.47;5037077;28;20028;-86
2023/07/10 05:26:02;;;;;;;52.33;34.58;;;;;;;-148.88;100.00;-17125.47;5038021;28;20033;-86
2023/07/10 05:28:27;;;;;;;;;;;;;;;-148.88;100.00;-17125.47;5037212;28;20025;-86
2023/07/10 05:30:54;;;;;;;48.33;31.77;;;;;;;-148.88;100.00;-17125.47;5036704;28;19966;-86
2023/07/10 05:33:20;;;;;;;46.13;31.38;;;;;;;-148.88;100.00;-17125.47;5019595;28;20097;-89
2023/07/10 05:35:53;;;;;;;51.65;33.10;;;;;;;-148.88;100.00;-17125.47;5018501;28;20028;-87
2023/07/10 05:38:21;;;;;;;52.00;34.78;;;;;;;-148.88;100.00;-17125.47;5036587;28;20025;-87
2023/07/10 05:40:49;;;;;;;52.47;35.17;;;;;;;-148.88;100.00;-17125.47;5036793;28;20030;-86
2023/07/10 05:43:14;;;;;;;46.15;32.58;;;;;;;-148.88;100.00;-17125.47;5020674;28;20033;-85
2023/07/10 05:45:43;;;;;;;41.45;30.63;;;;;;;-148.88;100.00;-17125.47;5020062;28;20030;-87
2023/07/10 05:48:09;;;;;;;45.90;30.95;;;;;;;-148.88;100.00;-17125.47;5018822;28;20419;-87
2023/07/10 05:50:35;;;;;;;41.67;28.77;;;;;;;-148.88;100.00;-17125.47;5018000;28;20028;-85
2023/07/10 05:53:01;;;;;;;44.08;30.88;;;;;;;-148.88;100.00;-17125.47;5019527;28;20026;-86
2023/07/10 05:55:27;;;;;;;46.13;32.05;;;;;;;-148.88;100.00;-17125.47;5037117;28;20396;-85
2023/07/10 05:57:52;;;;;;;45.95;32.33;;;;;;;-148.88;100.00;-17125.47;5036056;28;20087;-86
2023/07/10 06:00:18;;;;;;;47.72;32.10;;;;;;;-148.88;100.00;-17125.47;5019792;28;20025;-85
2023/07/10 06:02:43;;;;;;;50.15;30.77;;;;;;;-148.88;100.00;-17125.47;5019171;28;20022;-85
2023/07/10 06:05:12;;;;;;;46.85;30.48;;;;;;;-148.88;100.00;-17125.47;5037336;28;20523;-87
2023/07/10 06:07:37;;;;;;;45.83;28.23;;;;;;;-148.88;100.00;-17125.47;5036765;28;20049;-85
2023/07/10 06:10:03;;;;;;;38.05;26.67;;;;;;;-148.88;100.00;-17125.47;5035992;28;20068;-85
2023/07/10 06:12:29;;;;;;;39.33;27.05;;;;;;;-148.88;100.00;-17125.47;5036548;28;20476;-85
2023/07/10 06:14:54;;;;;;;36.47;25.13;;;;;;;-148.88;100.00;-17125.47;5035963;28;20108;-85
2023/07/10 06:17:20;;;;;;;34.10;23.95;;;;;;;-148.88;100.00;-17125.47;5036420;28;20033;-84
2023/07/10 06:19:45;;;;;;;33.58;22.58;;;;;;;-148.88;100.00;-17125.47;5035882;28;20029;-85
2023/07/10 06:22:12;;;;;;;31.70;22.70;;;;;;;-148.88;100.00;-17125.47;5036256;28;20101;-86
2023/07/10 06:24:38;;;;;;;30.20;21.95;;;;;;;-148.88;100.00;-17125.47;5017681;28;20399;-84
2023/07/10 06:27:05;;;;;;;31.90;21.80;;;;;;;-148.88;100.00;-17125.47;5035738;28;20033;-85
2023/07/10 06:29:31;;;;;;;28.98;21.27;;;;;;;-148.88;100.00;-17125.47;5036023;28;20021;-84
2023/07/10 06:31:57;;;;;;;25.98;19.27;;;;;;;-148.88;100.00;-17125.47;5035662;28;20052;-86
2023/07/10 06:34:22;;;;;;;24.83;18.13;;;;;;;-148.88;100.00;-17125.47;5017734;28;20033;-85
2023/07/10 06:36:48;;;;;;;23.52;17.52;;;;;;;-148.88;100.00;-17125.47;5035907;28;20120;-84
2023/07/10 06:39:13;;;;;;;24.40;17.70;;;;;;;-148.88;100.00;-17125.47;5035581;28;20061;-86
2023/07/10 06:41:39;;;;;;;27.42;18.17;;;;;;;-148.88;100.00;-17125.47;5040195;28;20097;-85
2023/07/10 06:44:04;;;;;;;23.65;16.63;;;;;;;-148.88;100.00;-17125.47;5019622;28;20491;-85
2023/07/10 06:46:33;;;;;;;24.00;17.15;;;;;;;-148.88;100.00;-17125.47;5037570;28;20056;-85
2023/07/10 06:49:14;;;;;;;21.42;15.18;;;;;;;-148.88;100.00;-17125.47;5019789;28;20469;-86
2023/07/10 06:52:08;;;;;;;17.85;13.60;;;;;;;-148.88;100.00;-17125.47;5022711;28;20055;-86
2023/07/10 06:54:33;;;;;;;15.02;12.15;;;;;;;-148.88;100.00;-17125.47;5020520;28;20033;-86
2023/07/10 06:56:59;;;;;;;17.17;11.95;;;;;;;-148.88;100.00;-17125.47;5034592;28;20400;-88
2023/07/10 06:59:24;;;;;;;12.95;11.25;;;;;;;-148.88;100.00;-17125.47;5016842;28;20405;-86
2023/07/10 07:01:49;;;;;;;16.48;12.15;;;;;;;-148.88;100.00;-17125.47;5034115;28;20023;-86
2023/07/10 07:04:15;;;;;;;15.88;11.30;;;;;;;-148.88;100.00;-17125.47;5034390;28;20063;-86
2023/07/10 07:06:40;;;;;;;15.43;10.43;;;;;;;-148.88;100.00;-17125.47;5034322;28;20108;-87
2023/07/10 07:09:09;;;;;;;14.07;10.57;;;;;;;-148.88;100.00;-17125.47;5034398;28;20037;-88
2023/07/10 07:11:34;;;;;;;13.95;9.68;;;;;;;-148.88;100.00;-17125.47;5017418;28;20017;-84
2023/07/10 07:14:02;;;;;;;12.48;8.93;;;;;;;-148.88;100.00;-17125.47;5016839;28;20029;-86
2023/07/10 07:16:27;;;;;;;12.68;8.77;;;;;;;-148.88;100.00;-17125.47;5017129;28;20049;-86
2023/07/10 07:18:52;;;;;;;11.85;7.90;;;;;;;-148.88;100.00;-17125.47;5016817;28;20057;-84
2023/07/10 07:21:18;;;;;;;11.43;7.55;;;;;;;-148.88;100.00;-17125.47;5034095;28;20483;-86
2023/07/10 07:23:43;;;;;;;9.88;7.30;;;;;;;-148.88;100.00;-17125.47;5034183;28;20024;-85
2023/07/10 07:26:09;;;;;;;10.60;7.03;;;;;;;-148.88;100.00;-17125.47;5016607;28;20017;-86
2023/07/10 07:28:40;;;;;;;9.05;6.53;;;;;;;-148.88;100.00;-17125.47;5016665;28;20064;-87
2023/07/10 07:31:06;;;;;;;10.15;7.15;;;;;;;-148.88;100.00;-17125.47;5016652;28;20048;-85
2023/07/10 07:33:32;;;;;;;8.82;4.82;;;;;;;-148.88;100.00;-17125.47;5034243;28;20172;-87
2023/07/10 07:36:00;;;;;;;9.40;5.60;;;;;;;-148.88;100.00;-17125.47;5034196;28;20033;-83
2023/07/10 07:38:25;;;;;;;9.70;6.07;;;;;;;-148.88;100.00;-17125.47;5019679;28;20025;-85
2023/07/10 07:40:51;;;;;;;7.72;5.55;;;;;;;-148.88;100.00;-17125.47;5019508;28;20085;-85
2023/07/10 07:43:16;;;;;;;10.88;6.38;;;;;;;-148.88;100.00;-17125.47;5037863;28;20472;-85
2023/07/10 07:45:56;;;;;;;10.18;5.60;;;;;;;-148.88;100.00;-17125.47;5039068;28;20025;-85
2023/07/10 07:48:23;;;;;;;10.18;6.45;;;;;;;-148.88;100.00;-17125.47;5036687;28;20025;-83
2023/07/10 07:51:03;;;;;;;9.27;6.85;;;;;;;-148.88;100.00;-17125.47;5018216;28;20025;-85
2023/07/10 07:53:31;;;;;;;11.15;8.18;;;;;;;-148.88;100.00;-17125.47;5020252;28;20029;-86
2023/07/10 07:55:57;;;;;;;12.50;8.45;;;;;;;-148.88;100.00;-17125.47;5029086;28;20036;-85
2023/07/10 07:58:22;;;;;;;11.95;9.15;;;;;;;-148.88;100.00;-17125.47;5046212;28;20412;-85
2023/07/10 08:00:49;;;;;;;13.50;8.90;;;;;;;-148.88;100.00;-17125.47;5043790;28;20022;-86
2023/07/10 08:03:14;;;;;;;15.13;10.20;;;;;;;-148.88;100.00;-17125.47;5045779;28;20044;-85
2023/07/10 08:05:40;;;;;;;14.63;11.27;;;;;;;-148.88;100.00;-17125.47;5042955;28;20022;-84
2023/07/10 08:08:09;;;;;;;13.88;10.30;;;;;;;-148.88;100.00;-17125.47;5041545;28;20033;-86
2023/07/10 08:10:43;;;;;;;14.43;11.80;;;;;;;-148.88;100.00;-17125.47;5024020;28;20033;-86
2023/07/10 08:13:10;;;;;;;11.88;10.57;;;;;;;-148.88;100.00;-17125.47;5042051;28;20029;-84
2023/07/10 08:15:36;;;;;;;15.05;12.27;;;;;;;-148.88;100.00;-17125.47;5039223;28;20075;-85
2023/07/10 08:18:02;;;;;;;11.50;9.60;;;;;;;-148.88;100.00;-17125.47;5038778;28;20077;-86
2023/07/10 08:20:28;;;;;;;9.20;6.38;;;;;;;-148.88;96.45;-17125.47;5022414;28;20114;-85
2023/07/10 08:22:53;;;;;;;11.70;8.18;;;;;;;-148.88;98.24;-17125.47;5039442;28;20037;-85
2023/07/10 08:25:19;;;;;;;11.80;8.68;;;;;;;-148.88;99.81;-17125.47;5039683;28;20022;-84
2023/07/10 08:27:45;;;;;;;12.00;10.52;;;;;;;-148.88;100.00;-17125.47;5037648;28;20510;-84
2023/07/10 08:30:12;;;;;;;12.77;10.30;;;;;;;-148.88;100.00;-17125.47;5016790;28;20026;-85
2023/07/10 08:32:37;;;;;;;12.95;10.70;;;;;;;-148.88;100.00;-17125.47;5034363;28;20053;-84
2023/07/10 08:35:03;;;;;;;9.30;8.30;;;;;;;-148.88;100.00;-17125.47;5033839;28;20032;-85
2023/07/10 08:37:28;;;;;;;11.18;8.35;;;;;;;-148.88;99.68;-17125.47;5033770;28;20036;-85
2023/07/10 08:39:55;;;;;;;8.27;7.40;;;;;;;-148.88;99.17;-17125.47;5033621;28;20071;-85
2023/07/10 08:42:28;;;;;;;8.15;6.53;;;;;;;-148.88;95.28;-17125.47;5033652;28;20027;-85
2023/07/10 08:44:55;;;;;;;6.38;4.78;;;;;;;-148.88;92.91;-17125.47;5034220;28;20033;-85
2023/07/10 08:47:20;;;;;;;7.57;4.63;;;;;;;-148.88;91.63;-17125.47;5033120;28;20033;-86
2023/07/10 08:49:54;;;;;;;6.20;4.30;;;;;;;-148.88;91.83;-17125.47;5033400;28;20026;-84
2023/07/10 08:52:38;;;;;;;7.20;4.35;;;;;;;-148.88;93.65;-17125.47;5016334;28;20036;-84
2023/07/10 08:55:10;;;;;;;7.22;4.28;;;;;;;-148.88;94.41;-17125.47;5033648;28;20033;-84
2023/07/10 08:57:40;;;;;;;5.88;4.68;;;;;;;-148.88;93.33;-17125.47;5033901;28;20025;-84
2023/07/10 09:00:12;;;;;;;5.72;4.30;;;;;;;-148.88;94.58;-17125.47;5033360;28;20025;-83
2023/07/10 09:02:43;;;;;;;5.23;3.93;;;;;;;-148.88;93.97;-17125.47;5033726;28;20021;-84
2023/07/10 09:05:14;;;;;;;4.88;3.70;;;;;;;-148.88;92.90;-17125.47;5016351;28;20032;-84
2023/07/10 09:07:42;;;;;;;5.93;3.72;;;;;;;-148.88;94.00;-17125.47;5026734;28;20045;-86
2023/07/10 09:10:40;;;;;;;6.45;3.63;;;;;;;-148.88;91.48;-17125.47;5039234;28;20029;-86
2023/07/10 09:13:13;;;;;;;8.00;3.55;;;;;;;-148.88;90.73;-17125.47;5031120;28;20038;-85
2023/07/10 09:15:49;;;;;;;5.32;3.00;;;;;;;-148.88;89.40;-17125.47;5038814;28;20022;-86
2023/07/10 09:18:25;;;;;;;3.70;2.63;;;;;;;-148.88;83.89;-17125.47;5037579;28;20041;-85
2023/07/10 09:20:56;;;;;;;7.22;3.30;;;;;;;-148.88;87.58;-17125.47;5036145;28;20018;-86
2023/07/10 09:23:29;;;;;;;5.97;3.05;;;;;;;-148.88;87.11;-17125.47;5035832;28;20469;-86
2023/07/10 09:26:05;;;;;;;6.55;3.55;;;;;;;-148.88;86.53;-17125.47;5034986;28;20037;-86
2023/07/10 09:28:40;;;;;;;6.45;3.13;;;;;;;-148.88;86.56;-17125.47;5037979;28;20392;-85
2023/07/10 09:31:05;;;;;;;4.95;2.83;;;;;;;-148.88;83.11;-17125.47;5020702;28;20030;-87
2023/07/10 09:34:01;;;;;;;6.30;2.85;;;;;;;-148.88;81.71;-17125.47;5038229;28;20037;-86
2023/07/10 09:36:27;;;;;;;6.47;2.65;;;;;;;-148.88;79.91;-17125.47;5035469;28;20499;-86
2023/07/10 09:38:53;;;;;;;4.60;2.20;;;;;;;-148.88;76.96;-17125.47;5036608;28;20120;-85
2023/07/10 09:41:23;;;;;;;4.53;2.03;;;;;;;-148.88;75.91;-17125.47;5036452;28;20032;-86
2023/07/10 09:43:53;;;;;;;2.72;1.70;;;;;;;-148.88;66.51;-17125.47;5036403;28;20049;-84
2023/07/10 09:46:23;;;;;;;4.88;1.67;;;;;;;-148.88;63.60;-17125.47;5036795;28;20018;-86
2023/07/10 09:48:51;;;;;;;3.88;1.80;;;;;;;-148.88;63.41;-17125.47;5018806;28;20017;-87
2023/07/10 09:51:17;;;;;;;3.83;1.60;;;;;;;-148.88;62.31;-17125.47;5035966;28;20065;-86
2023/07/10 09:53:48;;;;;;;3.97;1.65;;;;;;;-148.88;63.26;-17125.47;5019145;28;20078;-87
2023/07/10 09:56:37;;;;;;;3.58;1.60;;;;;;;-148.88;64.88;-17125.47;5035941;28;20029;-87
2023/07/10 09:59:15;;;;;;;3.83;1.83;;;;;;;-148.88;68.52;-17125.47;5018124;28;20029;-86
2023/07/10 10:01:40;;;;;;;3.65;1.80;;;;;;;-148.88;72.57;-17125.47;5036297;28;20025;-86
2023/07/10 10:04:05;;;;;;;6.45;2.00;;;;;;;-148.88;69.76;-17125.47;5035989;28;20043;-87
2023/07/10 10:06:31;;;;;;;6.18;2.20;;;;;;;-148.88;73.54;-17125.47;5035664;28;20079;-87
2023/07/10 10:08:57;;;;;;;4.32;2.10;;;;;;;-148.88;69.74;-17125.47;5067061;22;20030;-84
2023/07/10 10:11:37;;;;;;;7.60;2.20;;;;;;;-148.88;70.06;-17125.47;5022569;28;20041;-83
2023/07/10 10:14:10;;;;;;;5.57;2.25;;;;;;;-148.88;69.38;-17125.47;5021765;28;20021;-85
2023/07/10 10:16:41;;;;;;;6.03;2.50;;;;;;;-148.88;68.44;-17125.47;5022325;28;20439;-82
2023/07/10 10:19:12;;;;;;;7.57;2.17;;;;;;;-148.88;68.54;-17125.47;5020872;28;20044;-84
2023/07/10 10:21:39;;;;;;;4.35;1.90;;;;;;;-148.88;69.34;-17125.47;5021080;28;20083;-84
2023/07/10 10:24:10;;;;;;;5.00;2.25;;;;;;;-148.88;66.69;-17125.47;5021565;28;20077;-84
2023/07/10 10:26:59;;;;;;;4.20;2.13;;;;;;;-148.88;66.70;-17125.47;5021232;28;20106;-84
2023/07/10 10:29:40;;;;;;;7.50;2.20;;;;;;;-148.88;67.96;-17125.47;5040475;28;20032;-83
2023/07/10 10:32:08;;;;;;;5.85;2.55;;;;;;;-148.88;64.89;-17125.47;5041676;28;20404;-84
2023/07/10 10:34:50;;;;;;;4.10;2.38;;;;;;;-148.88;68.08;-17125.47;5024678;28;20480;-84
2023/07/10 10:37:28;;;;;;;7.03;2.58;;;;;;;-148.88;68.48;-17125.47;5027750;28;20021;-83
2023/07/10 10:40:19;;;;;;;5.28;2.10;;;;;;;-148.88;65.68;-17125.47;5042319;28;20005;-84
2023/07/10 10:42:50;;;;;;;5.90;2.10;;;;;;;-148.88;63.86;-17125.47;5042312;28;20021;-84
2023/07/10 10:45:31;;;;;;;3.95;2.00;;;;;;;-148.88;61.02;-17125.47;5045882;28;20025;-84
2023/07/10 10:48:28;;;;;;;5.40;1.88;;;;;;;-148.88;56.60;-17125.47;5038249;28;20076;-85
2023/07/10 10:51:30;;;;;;;3.67;1.50;;;;;;;-148.88;57.74;-17125.47;5039277;28;20049;-84
2023/07/10 10:54:07;;;;;;;4.65;1.65;;;;;;;-148.88;59.80;-17125.47;5019793;28;20022;-85
2023/07/10 10:56:38;;;;;;;3.30;1.65;;;;;;;-148.88;60.64;-17125.47;5038644;28;20029;-84
2023/07/10 10:59:06;;;;;;;4.90;1.40;;;;;;;-148.88;62.49;-17125.47;5039932;28;20400;-84